Shamokin Dam, Pennsylvania
Current Conditions -  °F | °C
As of 10:53 PM on Sunday 23 Nov 2014 (Local Time) from KSEG Reporting Station
Light Rain Light Rain  
Wind Chill: 51°   Ceiling: 2100
Heat Index: 51°   Visibility: 10mi
Dew Point: 43°   Wind: 5mph
Humidity: 74%   Direction: NA
Pressure: 29.89"   Gusts: NA
Location:  40.85°N, 76.82°W
Report Text: KSEG 240353Z AUTO VRB04KT 10SM -RA OVC021 11/06 A2989 RMK AO2 RAB43 SLP123 P0000 T01060061 $
Loading
Personal Weather Stations






























Interactive Weather Map New forecast layout! Learn more

10-Day Weather Forecast

Advertisements
Track Severe Weather on mobile